< < Back
Terminal Aerodrome Forecast


Current Version              Previous Versions:   1  2  3  4  5  6  7  8  9  

Terminal Aerodrome Forecast

862
FTUS44 KBMX 231700 RRA
TAFBHM
TAF
KBHM 231742Z 2318/2418 10010KT 4SM SHRA VCTS BKN014CB OVC030
      TEMPO 2319/2322 1SM TSRA OVC006CB
     FM232200 18014G20KT P6SM OVC015
     FM240300 20010KT 4SM BR OVC010
     FM241500 25014KT P6SM OVC020=

Latest METAR

099
SAUS70 KWBC 231900 RRG
MTRBHM
METAR KBHM 231853Z 13010G15KT 7SM -RA BKN008 OVC017 16/14 A2962 RMK AO2
RAB1756E06B34 CIG 006V012 SLP025 P0003 T01560144


USA.gov is the U.S. government's official web portal to all federal, state and local government web resources and services.